Time;durP1;ratioP1;P1;durP2;ratioP2;P2;SDS_P1;SDS_P2;PMS_P1;PMS_P2;Temp;Humidity;BMP_temperature;BMP_pressure;BME280_temperature;BME280_humidity;BME280_pressure;Samples;Min_cycle;Max_cycle;Signal;HPM_P1;HPM_P2
2023/04/11 05:01:38;;;;;;;;;3.67;3.00;;;;;;;;5389404;22;46137;-51
2023/04/11 05:04:05;;;;;;;;;1.67;1.67;;;;;;;;5015490;28;45387;-53
2023/04/11 05:06:30;;;;;;;;;3.67;3.00;;;;;;;;5011558;28;45355;-54
2023/04/11 05:08:57;;;;;;;;;4.67;1.67;;;;;;;;5015329;28;45304;-55
2023/04/11 05:11:22;;;;;;;;;5.00;2.67;;;;;;;;5011416;28;46350;-54
2023/04/11 05:13:47;;;;;;;;;3.00;1.00;;;;;;;;5014529;28;45385;-53
2023/04/11 05:16:13;;;;;;;;;3.00;1.00;;;;;;;;5006671;28;45434;-53
2023/04/11 05:18:38;;;;;;;;;3.33;3.00;;;;;;;;5014156;28;45431;-62
2023/04/11 05:21:04;;;;;;;;;4.00;2.00;;;;;;;;5011099;28;46098;-58
2023/04/11 05:23:29;;;;;;;;;5.33;1.67;;;;;;;;5018166;28;45473;-58
2023/04/11 05:25:54;;;;;;;;;7.00;2.33;;;;;;;;5013743;28;46302;-58
2023/04/11 05:28:19;;;;;;;;;4.67;2.33;;;;;;;;5011107;28;45462;-58
2023/04/11 05:30:45;;;;;;;;;5.33;4.00;;;;;;;;5032331;28;46103;-58
2023/04/11 05:33:11;;;;;;;;;5.67;4.00;;;;;;;;5001185;28;45360;-57
2023/04/11 05:35:36;;;;;;;;;5.67;3.00;;;;;;;;4998888;28;45491;-58
2023/04/11 05:38:02;;;;;;;;;4.33;2.00;;;;;;;;5007180;28;46205;-58
2023/04/11 05:40:27;;;;;;;;;2.00;0.67;;;;;;;;5013143;28;45712;-58
2023/04/11 05:42:52;;;;;;;;;0.33;0.33;;;;;;;;5004459;28;45413;-57
2023/04/11 05:45:17;;;;;;;;;6.33;2.67;;;;;;;;5009270;28;45300;-57
2023/04/11 05:47:43;;;;;;;;;3.67;2.00;;;;;;;;5008767;28;45201;-60
2023/04/11 05:50:09;;;;;;;;;2.67;1.00;;;;;;;;5006987;28;45294;-57
2023/04/11 05:52:34;;;;;;;;;6.00;2.33;;;;;;;;5003795;28;45303;-58
2023/04/11 05:55:00;;;;;;;;;5.33;2.33;;;;;;;;5014184;28;45279;-58
2023/04/11 05:57:25;;;;;;;;;6.00;3.00;;;;;;;;5011028;28;45445;-59
2023/04/11 05:59:51;;;;;;;;;5.33;1.67;;;;;;;;5011316;28;45504;-58
2023/04/11 06:02:17;;;;;;;;;5.67;3.00;;;;;;;;5002376;28;45559;-58
2023/04/11 06:04:42;;;;;;;;;3.67;2.00;;;;;;;;5001732;28;45379;-58
2023/04/11 06:07:07;;;;;;;;;2.00;2.00;;;;;;;;5001477;28;45351;-57
2023/04/11 06:09:32;;;;;;;;;1.67;1.67;;;;;;;;5002076;28;46411;-58
2023/04/11 06:11:57;;;;;;;;;4.00;2.33;;;;;;;;5001920;28;45423;-58
2023/04/11 06:14:23;;;;;;;;;5.67;3.00;;;;;;;;5009681;28;45212;-58
2023/04/11 06:16:48;;;;;;;;;4.00;2.67;;;;;;;;5014510;28;45246;-58
2023/04/11 06:19:13;;;;;;;;;5.67;1.00;;;;;;;;5015799;28;45533;-58
2023/04/11 06:21:38;;;;;;;;;1.00;1.00;;;;;;;;5002589;28;45401;-58
2023/04/11 06:24:07;;;;;;;;;3.33;3.33;;;;;;;;5011493;28;45698;-58
2023/04/11 06:26:33;;;;;;;;;5.00;3.00;;;;;;;;5014097;28;45512;-58
2023/04/11 06:28:58;;;;;;;;;3.67;2.00;;;;;;;;5011420;28;47952;-59
2023/04/11 06:31:24;;;;;;;;;3.67;2.00;;;;;;;;5011620;28;45529;-59
2023/04/11 06:33:49;;;;;;;;;4.67;2.67;;;;;;;;5013906;28;45645;-58
2023/04/11 06:36:14;;;;;;;;;6.00;3.33;;;;;;;;5008678;28;45455;-57
2023/04/11 06:38:41;;;;;;;;;3.00;2.00;;;;;;;;5008875;28;46841;-58
2023/04/11 06:41:06;;;;;;;;;4.67;3.00;;;;;;;;5007522;28;45255;-59
2023/04/11 06:43:31;;;;;;;;;3.33;2.33;;;;;;;;5001238;28;45280;-58
2023/04/11 06:45:56;;;;;;;;;10.33;3.00;;;;;;;;5007259;28;45525;-58
2023/04/11 06:48:23;;;;;;;;;3.00;2.00;;;;;;;;5001470;28;45954;-58
2023/04/11 06:50:48;;;;;;;;;5.33;2.67;;;;;;;;5003504;28;45407;-58
2023/04/11 06:53:13;;;;;;;;;4.33;3.00;;;;;;;;5002362;28;45240;-59
2023/04/11 06:55:38;;;;;;;;;5.00;3.00;;;;;;;;5004567;28;45454;-59
2023/04/11 06:58:03;;;;;;;;;5.00;2.00;;;;;;;;5003512;28;45408;-59
2023/04/11 07:00:29;;;;;;;;;3.00;2.33;;;;;;;;5001696;28;45306;-59
2023/04/11 07:02:54;;;;;;;;;6.33;1.00;;;;;;;;5004356;28;45290;-59
2023/04/11 07:05:19;;;;;;;;;3.00;3.00;;;;;;;;5010723;28;45339;-59
2023/04/11 07:07:44;;;;;;;;;4.00;2.00;;;;;;;;5008000;28;46078;-59
2023/04/11 07:10:10;;;;;;;;;4.33;4.33;;;;;;;;5002090;28;45311;-59
2023/04/11 07:12:35;;;;;;;;;5.00;3.67;;;;;;;;5003410;28;45232;-59
2023/04/11 07:15:01;;;;;;;;;3.00;2.00;;;;;;;;5009975;28;45348;-59
2023/04/11 07:17:26;;;;;;;;;4.33;2.67;;;;;;;;5006267;28;45655;-59
2023/04/11 07:19:51;;;;;;;;;5.00;3.00;;;;;;;;5004242;28;45699;-59
2023/04/11 07:22:16;;;;;;;;;1.67;1.33;;;;;;;;5016988;28;45759;-59
2023/04/11 07:24:42;;;;;;;;;4.00;2.00;;;;;;;;5012760;28;45344;-59
2023/04/11 07:27:07;;;;;;;;;5.33;2.00;;;;;;;;5011257;28;46269;-59
2023/04/11 07:29:32;;;;;;;;;7.33;3.33;;;;;;;;5019791;28;45295;-59
2023/04/11 07:31:58;;;;;;;;;3.00;2.33;;;;;;;;5013705;28;45413;-59
2023/04/11 07:34:23;;;;;;;;;3.33;1.33;;;;;;;;5010081;28;45533;-60
2023/04/11 07:36:48;;;;;;;;;5.00;2.00;;;;;;;;5011001;28;45376;-59
2023/04/11 07:39:14;;;;;;;;;2.33;2.00;;;;;;;;5012011;28;45256;-59
2023/04/11 07:41:39;;;;;;;;;7.67;3.00;;;;;;;;5020035;28;45379;-59
2023/04/11 07:44:06;;;;;;;;;6.00;3.00;;;;;;;;5019620;28;45403;-59
2023/04/11 07:46:31;;;;;;;;;4.00;2.33;;;;;;;;5011786;28;47025;-59
2023/04/11 07:48:56;;;;;;;;;1.67;1.33;;;;;;;;5008211;28;45332;-59
2023/04/11 07:51:21;;;;;;;;;4.00;2.67;;;;;;;;5011375;28;45386;-60
2023/04/11 07:53:46;;;;;;;;;6.67;2.00;;;;;;;;5019776;28;45628;-59
2023/04/11 07:56:13;;;;;;;;;2.00;2.00;;;;;;;;5011801;28;45466;-59
2023/04/11 07:58:38;;;;;;;;;5.00;3.33;;;;;;;;5012453;28;45473;-59
2023/04/11 08:01:04;;;;;;;;;3.00;2.33;;;;;;;;5008140;28;45442;-59
2023/04/11 08:03:30;;;;;;;;;3.67;2.33;;;;;;;;5012321;28;45710;-59
2023/04/11 08:05:55;;;;;;;;;2.33;2.00;;;;;;;;5009012;28;46183;-59
2023/04/11 08:08:20;;;;;;;;;8.67;2.00;;;;;;;;5012486;28;45245;-59
2023/04/11 08:10:45;;;;;;;;;4.00;2.00;;;;;;;;5011881;28;45370;-59
2023/04/11 08:13:11;;;;;;;;;5.67;2.67;;;;;;;;5013213;28;45241;-59
2023/04/11 08:15:37;;;;;;;;;9.33;2.33;;;;;;;;5011442;28;45379;-59
2023/04/11 08:18:04;;;;;;;;;3.00;3.00;;;;;;;;5009759;28;45418;-59
2023/04/11 08:20:29;;;;;;;;;4.00;1.67;;;;;;;;5012059;28;45625;-59
2023/04/11 08:22:54;;;;;;;;;4.67;1.67;;;;;;;;5015121;28;45336;-59
2023/04/11 08:25:21;;;;;;;;;2.33;1.67;;;;;;;;5015323;28;46165;-59
2023/04/11 08:27:46;;;;;;;;;4.00;2.00;;;;;;;;5007801;28;45280;-58
2023/04/11 08:30:12;;;;;;;;;1.67;0.67;;;;;;;;5007913;28;45451;-59
2023/04/11 08:32:37;;;;;;;;;3.67;2.33;;;;;;;;5011056;28;45410;-59
2023/04/11 08:35:03;;;;;;;;;5.67;2.33;;;;;;;;5008019;28;45754;-59
2023/04/11 08:37:28;;;;;;;;;4.33;2.67;;;;;;;;5010942;28;45318;-59
2023/04/11 08:39:53;;;;;;;;;5.33;2.67;;;;;;;;5012746;28;45307;-59
2023/04/11 08:42:26;;;;;;;;;3.00;3.00;;;;;;;;5006833;28;45343;-59
2023/04/11 08:44:58;;;;;;;;;1.67;0.00;;;;;;;;5009884;28;46226;-59
2023/04/11 08:47:24;;;;;;;;;6.33;2.33;;;;;;;;5005182;28;45323;-59
2023/04/11 08:49:49;;;;;;;;;6.00;3.33;;;;;;;;5012527;28;45619;-59
2023/04/11 08:52:15;;;;;;;;;1.67;1.67;;;;;;;;5018620;28;45426;-59
2023/04/11 08:54:40;;;;;;;;;2.67;2.67;;;;;;;;5012712;28;46165;-59
2023/04/11 08:57:06;;;;;;;;;4.33;2.00;;;;;;;;5008482;28;45346;-58
2023/04/11 08:59:34;;;;;;;;;1.67;1.67;;;;;;;;5011293;28;45338;-59
2023/04/11 09:02:09;;;;;;;;;3.00;1.00;;;;;;;;5006809;28;45628;-57
2023/04/11 09:04:38;;;;;;;;;1.67;1.00;;;;;;;;5012225;28;45445;-57
2023/04/11 09:07:04;;;;;;;;;2.00;1.00;;;;;;;;4998497;28;45356;-57
2023/04/11 09:09:33;;;;;;;;;4.33;1.67;;;;;;;;5006224;28;45726;-57
2023/04/11 09:11:58;;;;;;;;;2.33;2.33;;;;;;;;5005609;28;45463;-57
2023/04/11 09:14:24;;;;;;;;;3.00;3.00;;;;;;;;5012290;28;46108;-57
2023/04/11 09:16:54;;;;;;;;;5.33;3.00;;;;;;;;5012874;28;45367;-57
2023/04/11 09:19:23;;;;;;;;;2.67;2.00;;;;;;;;5009964;28;45469;-58
2023/04/11 09:21:49;;;;;;;;;4.67;1.67;;;;;;;;5012780;28;45453;-58
2023/04/11 09:24:14;;;;;;;;;2.67;2.00;;;;;;;;5016969;28;45351;-58
2023/04/11 09:26:40;;;;;;;;;3.33;1.00;;;;;;;;5011760;28;45267;-58
2023/04/11 09:29:05;;;;;;;;;1.00;1.00;;;;;;;;5018784;28;45343;-58
2023/04/11 09:31:43;;;;;;;;;4.67;3.00;;;;;;;;5015269;28;45740;-58
2023/04/11 09:34:09;;;;;;;;;6.00;2.00;;;;;;;;5016437;28;45371;-58
2023/04/11 09:36:34;;;;;;;;;4.00;2.00;;;;;;;;5014847;28;45292;-58
2023/04/11 09:39:14;;;;;;;;;1.00;1.00;;;;;;;;5014095;28;45532;-58
2023/04/11 09:41:39;;;;;;;;;4.33;1.33;;;;;;;;5012385;28;45410;-58
2023/04/11 09:44:05;;;;;;;;;7.00;1.00;;;;;;;;5014420;28;45327;-58
2023/04/11 09:46:30;;;;;;;;;3.00;2.00;;;;;;;;5021679;28;45219;-58
2023/04/11 09:48:55;;;;;;;;;3.33;1.67;;;;;;;;5015409;28;45245;-58
2023/04/11 09:51:21;;;;;;;;;4.00;2.33;;;;;;;;5014234;28;45418;-58
2023/04/11 09:53:46;;;;;;;;;8.33;3.00;;;;;;;;5012502;28;45740;-58
2023/04/11 09:56:12;;;;;;;;;3.67;2.00;;;;;;;;5010925;28;45638;-58
2023/04/11 09:58:38;;;;;;;;;4.00;2.00;;;;;;;;5011778;28;45320;-58
2023/04/11 10:01:06;;;;;;;;;3.33;1.00;;;;;;;;5016586;28;45213;-58
2023/04/11 10:03:35;;;;;;;;;2.67;1.00;;;;;;;;5010453;28;47116;-58
2023/04/11 10:06:03;;;;;;;;;4.67;2.00;;;;;;;;5013685;28;45457;-58
2023/04/11 10:08:31;;;;;;;;;2.00;2.00;;;;;;;;5010686;28;45257;-58
2023/04/11 10:11:00;;;;;;;;;4.33;3.00;;;;;;;;5014674;28;45317;-58
2023/04/11 10:13:45;;;;;;;;;2.00;1.00;;;;;;;;5011162;28;45380;-58
2023/04/11 10:16:12;;;;;;;;;2.67;1.67;;;;;;;;5016003;28;45373;-59
2023/04/11 10:18:49;;;;;;;;;4.33;4.33;;;;;;;;5007960;28;45408;-58
2023/04/11 10:21:29;;;;;;;;;3.33;0.33;;;;;;;;5012460;28;45531;-58
2023/04/11 10:24:13;;;;;;;;;2.00;1.00;;;;;;;;5020239;28;45453;-58
2023/04/11 10:26:52;;;;;;;;;1.00;1.00;;;;;;;;5014530;28;45351;-59
2023/04/11 10:29:33;;;;;;;;;2.00;2.00;;;;;;;;5007815;28;45310;-59
2023/04/11 10:32:13;;;;;;;;;3.67;2.00;;;;;;;;5017758;28;45513;-59
2023/04/11 10:34:59;;;;;;;;;0.00;0.00;;;;;;;;5014747;28;46326;-58
2023/04/11 10:37:33;;;;;;;;;4.33;2.00;;;;;;;;5012719;28;45640;-59
2023/04/11 10:40:11;;;;;;;;;3.67;2.00;;;;;;;;5016964;28;45372;-58
2023/04/11 10:42:43;;;;;;;;;1.00;1.00;;;;;;;;5021029;28;45446;-59
2023/04/11 10:45:17;;;;;;;;;4.67;2.00;;;;;;;;5007337;28;45508;-58
2023/04/11 10:47:42;;;;;;;;;2.00;2.00;;;;;;;;5007595;28;45226;-59
2023/04/11 10:50:26;;;;;;;;;3.00;3.00;;;;;;;;5008212;28;45285;-58
2023/04/11 10:52:52;;;;;;;;;4.00;1.67;;;;;;;;5013894;28;45264;-58
2023/04/11 10:55:18;;;;;;;;;5.67;3.00;;;;;;;;5011857;28;46094;-58
2023/04/11 10:58:01;;;;;;;;;7.67;2.67;;;;;;;;5010667;28;45273;-58
2023/04/11 11:00:27;;;;;;;;;3.00;3.00;;;;;;;;5012706;28;45344;-59
2023/04/11 11:02:52;;;;;;;;;3.00;1.67;;;;;;;;5013889;28;45230;-59
2023/04/11 11:05:19;;;;;;;;;5.33;1.67;;;;;;;;5007809;28;45318;-59
2023/04/11 11:07:45;;;;;;;;;2.00;2.00;;;;;;;;5013956;28;45287;-58
2023/04/11 11:10:10;;;;;;;;;2.67;2.00;;;;;;;;5006870;28;45294;-58
2023/04/11 11:12:36;;;;;;;;;6.67;3.00;;;;;;;;5019783;28;45343;-58
2023/04/11 11:15:11;;;;;;;;;5.67;2.00;;;;;;;;5009722;28;45414;-58
2023/04/11 11:17:36;;;;;;;;;4.00;2.33;;;;;;;;5013958;28;45407;-58
2023/04/11 11:20:08;;;;;;;;;4.00;1.00;;;;;;;;5008792;28;45543;-58
2023/04/11 11:22:34;;;;;;;;;4.00;2.67;;;;;;;;5013435;28;45306;-58
2023/04/11 11:25:08;;;;;;;;;1.67;1.00;;;;;;;;5015110;28;46222;-58
2023/04/11 11:27:33;;;;;;;;;1.67;0.67;;;;;;;;5019139;28;45450;-59
2023/04/11 11:30:09;;;;;;;;;2.33;1.33;;;;;;;;5013918;28;45240;-58
2023/04/11 11:32:34;;;;;;;;;2.25;1.00;;;;;;;;5020191;28;45232;-59
2023/04/11 11:35:11;;;;;;;;;3.67;1.33;;;;;;;;5019870;28;45465;-58
2023/04/11 11:37:36;;;;;;;;;3.00;1.67;;;;;;;;5010247;28;45397;-59
2023/04/11 11:40:04;;;;;;;;;3.00;1.33;;;;;;;;5009562;28;45556;-58
2023/04/11 11:42:30;;;;;;;;;1.00;1.00;;;;;;;;5018738;28;45284;-59
2023/04/11 11:45:12;;;;;;;;;5.33;2.00;;;;;;;;5004674;28;45353;-58
2023/04/11 11:47:44;;;;;;;;;4.67;1.00;;;;;;;;5006563;28;45423;-58
2023/04/11 11:50:10;;;;;;;;;2.00;1.00;;;;;;;;5013436;28;45399;-59
2023/04/11 11:52:36;;;;;;;;;2.33;2.00;;;;;;;;5012284;28;45556;-58
2023/04/11 11:55:25;;;;;;;;;2.67;2.00;;;;;;;;5012088;28;46141;-58
2023/04/11 11:57:50;;;;;;;;;4.33;2.00;;;;;;;;5003909;28;45513;-58
2023/04/11 12:00:25;;;;;;;;;5.00;1.67;;;;;;;;5009064;28;45351;-59
2023/04/11 12:02:51;;;;;;;;;4.33;1.00;;;;;;;;5010913;28;45544;-58
2023/04/11 12:05:16;;;;;;;;;1.00;1.00;;;;;;;;5013073;28;45367;-58
2023/04/11 12:07:41;;;;;;;;;2.00;2.00;;;;;;;;5012157;28;45262;-58
2023/04/11 12:10:08;;;;;;;;;1.00;1.00;;;;;;;;5015130;28;45301;-59
2023/04/11 12:12:37;;;;;;;;;2.00;1.00;;;;;;;;5011651;28;45777;-58
2023/04/11 12:15:08;;;;;;;;;1.67;1.33;;;;;;;;5011908;28;45520;-58
2023/04/11 12:17:34;;;;;;;;;1.00;1.00;;;;;;;;4999693;28;45267;-58
2023/04/11 12:19:59;;;;;;;;;1.67;1.00;;;;;;;;5007278;28;45299;-58
2023/04/11 12:22:25;;;;;;;;;4.67;0.67;;;;;;;;5011286;28;45357;-58
2023/04/11 12:25:02;;;;;;;;;1.00;1.00;;;;;;;;5013031;28;47569;-58
2023/04/11 12:27:27;;;;;;;;;1.00;1.00;;;;;;;;5007447;28;45323;-58
2023/04/11 12:29:53;;;;;;;;;3.00;1.33;;;;;;;;5005744;28;45347;-58
2023/04/11 12:32:18;;;;;;;;;2.33;2.33;;;;;;;;5018285;28;45695;-58
2023/04/11 12:34:43;;;;;;;;;1.67;1.67;;;;;;;;5005557;28;45571;-59
2023/04/11 12:37:08;;;;;;;;;3.00;1.33;;;;;;;;5010866;28;45339;-58
2023/04/11 12:39:33;;;;;;;;;1.00;1.00;;;;;;;;5006165;28;45358;-58
2023/04/11 12:41:59;;;;;;;;;3.00;1.33;;;;;;;;5018339;28;45508;-58
2023/04/11 12:44:24;;;;;;;;;0.33;0.33;;;;;;;;5013100;28;45390;-58
2023/04/11 12:46:49;;;;;;;;;1.33;1.00;;;;;;;;5015297;28;45358;-59
2023/04/11 12:49:14;;;;;;;;;1.00;1.00;;;;;;;;5010882;28;45375;-58
2023/04/11 12:51:39;;;;;;;;;4.67;1.00;;;;;;;;5011259;28;45396;-59
2023/04/11 12:54:05;;;;;;;;;0.00;0.00;;;;;;;;5012046;28;45241;-58
2023/04/11 12:56:31;;;;;;;;;2.00;1.00;;;;;;;;5011121;28;45654;-58
2023/04/11 12:58:56;;;;;;;;;2.67;1.00;;;;;;;;5016167;28;45772;-58
2023/04/11 13:01:22;;;;;;;;;2.67;1.00;;;;;;;;5005348;28;45849;-58
2023/04/11 13:03:47;;;;;;;;;1.00;1.00;;;;;;;;5005938;28;45774;-59
2023/04/11 13:06:12;;;;;;;;;2.00;1.67;;;;;;;;5014832;28;45342;-58
2023/04/11 13:08:37;;;;;;;;;2.00;1.00;;;;;;;;5013503;28;45359;-58
2023/04/11 13:11:03;;;;;;;;;2.00;0.33;;;;;;;;5014879;28;45927;-58
2023/04/11 13:13:28;;;;;;;;;3.00;2.00;;;;;;;;5016203;28;47128;-59
2023/04/11 13:15:53;;;;;;;;;3.67;1.00;;;;;;;;5019260;28;45226;-59
2023/04/11 13:18:18;;;;;;;;;3.33;1.00;;;;;;;;5018176;28;45545;-59
2023/04/11 13:20:43;;;;;;;;;0.67;0.67;;;;;;;;5016179;28;45432;-59
2023/04/11 13:23:09;;;;;;;;;2.00;1.00;;;;;;;;5018470;28;45571;-58
2023/04/11 13:25:34;;;;;;;;;3.00;1.00;;;;;;;;5017602;28;45347;-58
2023/04/11 13:27:59;;;;;;;;;4.00;1.00;;;;;;;;5016129;28;45372;-59
2023/04/11 13:30:25;;;;;;;;;1.00;1.00;;;;;;;;5013960;28;45452;-58
2023/04/11 13:32:51;;;;;;;;;0.00;0.00;;;;;;;;5013074;28;46057;-59
2023/04/11 13:35:16;;;;;;;;;1.67;1.00;;;;;;;;5023296;28;45871;-58
2023/04/11 13:37:41;;;;;;;;;1.67;1.00;;;;;;;;5014638;28;45343;-58
2023/04/11 13:40:07;;;;;;;;;1.00;1.00;;;;;;;;5012531;28;45454;-58
2023/04/11 13:42:32;;;;;;;;;4.33;1.33;;;;;;;;5014672;28;45811;-59
2023/04/11 13:44:57;;;;;;;;;4.67;1.00;;;;;;;;5013693;28;45536;-59
2023/04/11 13:47:23;;;;;;;;;2.33;0.67;;;;;;;;5007430;28;45547;-59
2023/04/11 13:49:48;;;;;;;;;2.00;2.00;;;;;;;;5014514;28;45428;-58
2023/04/11 13:52:13;;;;;;;;;3.00;1.67;;;;;;;;5004450;28;46052;-59
2023/04/11 13:54:38;;;;;;;;;2.00;0.67;;;;;;;;5016812;28;45550;-59
2023/04/11 13:57:06;;;;;;;;;1.67;1.00;;;;;;;;5018389;28;45346;-59
2023/04/11 13:59:31;;;;;;;;;1.00;1.00;;;;;;;;5009384;28;45490;-59
2023/04/11 14:01:56;;;;;;;;;2.67;1.00;;;;;;;;4991384;28;47939;-58
2023/04/11 14:04:21;;;;;;;;;1.33;1.00;;;;;;;;5011149;28;46381;-58
2023/04/11 14:06:47;;;;;;;;;1.00;1.00;;;;;;;;5009608;28;45583;-58
2023/04/11 14:09:12;;;;;;;;;1.33;1.00;;;;;;;;5021373;28;45153;-59
2023/04/11 14:11:37;;;;;;;;;3.67;2.00;;;;;;;;5020382;28;45970;-59
2023/04/11 14:14:02;;;;;;;;;1.33;1.33;;;;;;;;5016604;28;45359;-58
2023/04/11 14:16:28;;;;;;;;;2.33;1.00;;;;;;;;5001537;28;45557;-58
2023/04/11 14:18:53;;;;;;;;;1.00;0.00;;;;;;;;5012911;28;45634;-59
2023/04/11 14:21:18;;;;;;;;;1.67;0.67;;;;;;;;5014168;28;46170;-59
2023/04/11 14:23:43;;;;;;;;;2.00;2.00;;;;;;;;5009042;28;45217;-58
2023/04/11 14:26:08;;;;;;;;;3.33;2.00;;;;;;;;5018621;28;45247;-59
2023/04/11 14:28:33;;;;;;;;;1.00;1.00;;;;;;;;5023118;28;45716;-59
2023/04/11 14:30:59;;;;;;;;;1.33;1.00;;;;;;;;5018649;28;45613;-59
2023/04/11 14:33:25;;;;;;;;;3.00;1.00;;;;;;;;5020455;28;45338;-58
2023/04/11 14:35:50;;;;;;;;;1.33;0.67;;;;;;;;5021675;28;45392;-58
2023/04/11 14:38:15;;;;;;;;;4.33;1.33;;;;;;;;5011798;28;45163;-58
2023/04/11 14:40:41;;;;;;;;;3.00;2.00;;;;;;;;5019655;28;46247;-58
2023/04/11 14:43:06;;;;;;;;;1.00;1.00;;;;;;;;5018996;28;45492;-59
2023/04/11 14:45:31;;;;;;;;;4.00;2.67;;;;;;;;5018909;28;45390;-59
2023/04/11 14:47:56;;;;;;;;;1.00;1.00;;;;;;;;5015322;28;45320;-58
2023/04/11 14:50:22;;;;;;;;;3.00;1.33;;;;;;;;5027795;28;45356;-58
2023/04/11 14:52:47;;;;;;;;;1.67;0.00;;;;;;;;5014491;28;45381;-58
2023/04/11 14:55:12;;;;;;;;;1.00;1.00;;;;;;;;5023660;28;45419;-59
2023/04/11 14:57:45;;;;;;;;;3.33;2.00;;;;;;;;5033594;28;45339;-58
2023/04/11 15:00:16;;;;;;;;;4.67;1.67;;;;;;;;5018073;28;46112;-60
2023/04/11 15:02:42;;;;;;;;;0.00;0.00;;;;;;;;5024828;28;45472;-59
2023/04/11 15:05:07;;;;;;;;;2.00;2.00;;;;;;;;5013686;28;45398;-59
2023/04/11 15:07:32;;;;;;;;;1.67;1.67;;;;;;;;5012817;28;45402;-58
2023/04/11 15:09:57;;;;;;;;;1.00;1.00;;;;;;;;5016114;28;46828;-59
2023/04/11 15:12:23;;;;;;;;;0.67;0.67;;;;;;;;5010501;28;45453;-58
2023/04/11 15:14:48;;;;;;;;;3.33;2.00;;;;;;;;5018586;28;45268;-58
2023/04/11 15:17:13;;;;;;;;;2.33;1.33;;;;;;;;5007954;28;45395;-59
2023/04/11 15:19:38;;;;;;;;;0.67;0.00;;;;;;;;5013762;28;45529;-59
2023/04/11 15:22:03;;;;;;;;;2.33;2.00;;;;;;;;5017910;28;45430;-59
2023/04/11 15:24:29;;;;;;;;;1.00;1.00;;;;;;;;5013215;28;45639;-59
2023/04/11 15:26:55;;;;;;;;;1.00;0.00;;;;;;;;5018572;28;45391;-59
2023/04/11 15:29:20;;;;;;;;;3.33;1.00;;;;;;;;5015540;28;47101;-58
2023/04/11 15:31:46;;;;;;;;;1.00;1.00;;;;;;;;5019317;28;45567;-59
2023/04/11 15:34:12;;;;;;;;;0.00;0.00;;;;;;;;5008069;28;45329;-59
2023/04/11 15:36:37;;;;;;;;;0.00;0.00;;;;;;;;5013963;28;45394;-59
2023/04/11 15:39:03;;;;;;;;;1.67;1.67;;;;;;;;5008939;28;46125;-59
2023/04/11 15:41:30;;;;;;;;;2.00;2.00;;;;;;;;5010830;28;45806;-59
2023/04/11 15:43:55;;;;;;;;;2.00;1.00;;;;;;;;5015682;28;45577;-58
2023/04/11 15:46:21;;;;;;;;;2.33;1.00;;;;;;;;5014949;28;45364;-59
2023/04/11 15:48:46;;;;;;;;;3.33;2.00;;;;;;;;5023808;28;45617;-58
2023/04/11 15:51:13;;;;;;;;;9.00;7.67;;;;;;;;5016563;28;45760;-59
2023/04/11 15:53:38;;;;;;;;;3.00;3.00;;;;;;;;5001817;28;45493;-59
2023/04/11 15:56:04;;;;;;;;;1.00;1.00;;;;;;;;5020693;28;45278;-59
2023/04/11 15:58:31;;;;;;;;;1.00;1.00;;;;;;;;5005302;28;46172;-58
2023/04/11 16:01:00;;;;;;;;;3.00;1.67;;;;;;;;5017715;28;45498;-59
2023/04/11 16:03:30;;;;;;;;;1.67;1.67;;;;;;;;5014273;28;45295;-58
2023/04/11 16:05:55;;;;;;;;;1.00;1.00;;;;;;;;5003848;28;45613;-58
2023/04/11 16:08:20;;;;;;;;;2.00;1.00;;;;;;;;5009682;28;46323;-59
2023/04/11 16:10:46;;;;;;;;;0.00;0.00;;;;;;;;5018581;28;45346;-59
2023/04/11 16:13:11;;;;;;;;;2.00;0.67;;;;;;;;5007290;28;45289;-59
2023/04/11 16:15:36;;;;;;;;;1.00;1.00;;;;;;;;5023490;28;45370;-58
2023/04/11 16:18:01;;;;;;;;;0.67;0.67;;;;;;;;5007904;28;45411;-58
2023/04/11 16:20:27;;;;;;;;;1.00;1.00;;;;;;;;5011013;28;45495;-58
2023/04/11 16:22:52;;;;;;;;;2.67;0.00;;;;;;;;5018190;28;45398;-58
2023/04/11 16:25:19;;;;;;;;;5.33;2.00;;;;;;;;5012666;28;45382;-58
2023/04/11 16:27:45;;;;;;;;;2.00;1.00;;;;;;;;5006199;28;46170;-58
2023/04/11 16:30:11;;;;;;;;;1.00;1.00;;;;;;;;5006209;28;45410;-58
2023/04/11 16:32:36;;;;;;;;;3.33;0.67;;;;;;;;5013328;28;45650;-58
2023/04/11 16:35:01;;;;;;;;;0.67;0.67;;;;;;;;5003585;28;45673;-58
2023/04/11 16:37:27;;;;;;;;;0.33;0.00;;;;;;;;5010653;28;45417;-58
2023/04/11 16:39:52;;;;;;;;;0.67;0.67;;;;;;;;5011130;28;45449;-58
2023/04/11 16:42:17;;;;;;;;;0.67;0.67;;;;;;;;5015983;28;45763;-58
2023/04/11 16:44:42;;;;;;;;;1.33;0.33;;;;;;;;5007692;28;45562;-57
2023/04/11 16:47:08;;;;;;;;;0.67;0.67;;;;;;;;5004110;28;48226;-57
2023/04/11 16:49:33;;;;;;;;;0.67;0.67;;;;;;;;5016583;28;45421;-58
2023/04/11 16:51:59;;;;;;;;;2.00;2.00;;;;;;;;5011167;28;45932;-57
2023/04/11 16:54:24;;;;;;;;;1.67;1.33;;;;;;;;5009593;28;45600;-56
2023/04/11 16:56:49;;;;;;;;;3.33;2.00;;;;;;;;5014161;28;46057;-57
2023/04/11 16:59:15;;;;;;;;;1.67;1.67;;;;;;;;5006647;28;45521;-56
2023/04/11 17:01:41;;;;;;;;;2.00;0.67;;;;;;;;5012978;28;45470;-56
2023/04/11 17:04:06;;;;;;;;;4.00;2.00;;;;;;;;5012492;28;45847;-57
2023/04/11 17:06:32;;;;;;;;;1.67;1.67;;;;;;;;5002456;28;45417;-57
2023/04/11 17:08:57;;;;;;;;;1.00;1.00;;;;;;;;5008924;28;45765;-57
2023/04/11 17:11:22;;;;;;;;;4.00;2.33;;;;;;;;5025369;28;45366;-58
2023/04/11 17:13:48;;;;;;;;;2.67;2.00;;;;;;;;5020749;28;45613;-56
2023/04/11 17:16:14;;;;;;;;;3.00;2.00;;;;;;;;5019462;28;47061;-58
2023/04/11 17:18:39;;;;;;;;;3.67;2.00;;;;;;;;5011575;28;45429;-58
2023/04/11 17:21:05;;;;;;;;;4.00;2.00;;;;;;;;5012092;28;45367;-58
2023/04/11 17:23:30;;;;;;;;;4.00;4.00;;;;;;;;5009513;28;46458;-57
2023/04/11 17:25:57;;;;;;;;;3.00;1.67;;;;;;;;5013109;28;46026;-57
2023/04/11 17:28:23;;;;;;;;;4.00;2.00;;;;;;;;5011814;28;45431;-56
2023/04/11 17:30:48;;;;;;;;;3.67;3.33;;;;;;;;5011644;28;45726;-57
2023/04/11 17:33:14;;;;;;;;;3.33;3.00;;;;;;;;5010821;28;45370;-57
2023/04/11 17:35:40;;;;;;;;;2.67;2.67;;;;;;;;5018709;28;47030;-57
2023/04/11 17:38:05;;;;;;;;;3.00;2.00;;;;;;;;5014037;28;45630;-57
2023/04/11 17:40:30;;;;;;;;;4.67;3.00;;;;;;;;5008786;28;45845;-56
2023/04/11 17:42:56;;;;;;;;;2.00;2.00;;;;;;;;5008926;28;45414;-55
2023/04/11 17:45:22;;;;;;;;;2.67;2.67;;;;;;;;5011840;28;46240;-57
2023/04/11 17:47:47;;;;;;;;;3.00;3.00;;;;;;;;5016546;28;45391;-55
2023/04/11 17:50:12;;;;;;;;;4.33;2.67;;;;;;;;5017486;28;45470;-55
2023/04/11 17:52:39;;;;;;;;;4.00;4.00;;;;;;;;5015963;28;45457;-57
2023/04/11 17:55:05;;;;;;;;;5.00;4.00;;;;;;;;5013358;28;45575;-55
2023/04/11 17:57:30;;;;;;;;;2.67;2.00;;;;;;;;5008366;28;45755;-56
2023/04/11 17:59:55;;;;;;;;;3.33;3.33;;;;;;;;5016226;28;45353;-55
2023/04/11 18:02:20;;;;;;;;;3.00;3.00;;;;;;;;5034550;28;45568;-54
2023/04/11 18:04:47;;;;;;;;;5.00;3.00;;;;;;;;5015943;28;46022;-55
2023/04/11 18:07:13;;;;;;;;;4.00;2.00;;;;;;;;5017964;28;45346;-56
2023/04/11 18:09:38;;;;;;;;;2.00;2.00;;;;;;;;5013115;28;45509;-55
2023/04/11 18:12:03;;;;;;;;;3.00;3.00;;;;;;;;5014811;28;46445;-55
2023/04/11 18:14:28;;;;;;;;;6.33;4.00;;;;;;;;5009820;28;46049;-55
2023/04/11 18:16:54;;;;;;;;;5.00;2.00;;;;;;;;5019997;28;45395;-55
2023/04/11 18:19:19;;;;;;;;;4.00;3.33;;;;;;;;5011749;28;45479;-55
2023/04/11 18:21:44;;;;;;;;;4.33;4.33;;;;;;;;5016927;28;45260;-57
2023/04/11 18:24:09;;;;;;;;;4.00;2.00;;;;;;;;5012528;28;46205;-59
2023/04/11 18:26:35;;;;;;;;;5.00;3.00;;;;;;;;5015385;28;45485;-57
2023/04/11 18:29:00;;;;;;;;;10.00;4.00;;;;;;;;5014646;28;45466;-55
2023/04/11 18:31:25;;;;;;;;;5.00;5.00;;;;;;;;5011193;28;45546;-56
2023/04/11 18:33:51;;;;;;;;;6.67;5.67;;;;;;;;5020019;28;46708;-55
2023/04/11 18:36:16;;;;;;;;;6.00;4.00;;;;;;;;5009709;28;45487;-55
2023/04/11 18:38:42;;;;;;;;;7.00;4.67;;;;;;;;5013242;28;45466;-56
2023/04/11 18:41:07;;;;;;;;;9.00;6.00;;;;;;;;5010136;28;45447;-56
2023/04/11 18:43:33;;;;;;;;;5.67;5.67;;;;;;;;5013374;28;45611;-54
2023/04/11 18:45:59;;;;;;;;;7.00;5.33;;;;;;;;5001158;28;45786;-56
2023/04/11 18:48:25;;;;;;;;;5.67;3.33;;;;;;;;5002110;28;46487;-56
2023/04/11 18:50:59;;;;;;;;;9.00;6.00;;;;;;;;5018714;28;45474;-56
2023/04/11 18:53:25;;;;;;;;;4.00;4.00;;;;;;;;5014344;28;46301;-56
2023/04/11 18:55:50;;;;;;;;;5.00;4.33;;;;;;;;5012651;28;45477;-56
2023/04/11 18:58:15;;;;;;;;;6.00;4.33;;;;;;;;5011214;28;45541;-57
2023/04/11 19:00:41;;;;;;;;;6.33;6.33;;;;;;;;5010717;28;45478;-57
2023/04/11 19:03:13;;;;;;;;;5.33;4.00;;;;;;;;5017624;28;45920;-57
2023/04/11 19:05:39;;;;;;;;;6.33;5.33;;;;;;;;5013294;28;45590;-53
2023/04/11 19:08:04;;;;;;;;;7.00;4.00;;;;;;;;5012712;28;45488;-56
2023/04/11 19:10:29;;;;;;;;;7.00;4.00;;;;;;;;5006483;28;45554;-54
2023/04/11 19:12:54;;;;;;;;;9.67;7.00;;;;;;;;5014572;28;46078;-55
2023/04/11 19:15:20;;;;;;;;;5.00;5.00;;;;;;;;5018367;28;45408;-56
2023/04/11 19:17:45;;;;;;;;;9.00;6.67;;;;;;;;5003023;28;48370;-55
2023/04/11 19:20:11;;;;;;;;;8.33;7.00;;;;;;;;5011616;28;45714;-55
2023/04/11 19:22:38;;;;;;;;;6.00;6.00;;;;;;;;5019285;28;46284;-56
2023/04/11 19:25:04;;;;;;;;;6.67;6.67;;;;;;;;5009581;28;45522;-56
2023/04/11 19:27:29;;;;;;;;;8.33;7.67;;;;;;;;5016721;28;45322;-57
2023/04/11 19:29:55;;;;;;;;;7.33;6.33;;;;;;;;5018019;28;45456;-54
2023/04/11 19:32:21;;;;;;;;;8.00;6.33;;;;;;;;5020740;28;45616;-55
2023/04/11 19:34:48;;;;;;;;;7.33;5.00;;;;;;;;5020259;28;45458;-56
2023/04/11 19:37:15;;;;;;;;;8.33;6.00;;;;;;;;5022725;28;45362;-56
2023/04/11 19:39:40;;;;;;;;;6.33;6.00;;;;;;;;5015192;28;46582;-56